sensor_id;sensor_type;location;lat;lon;timestamp;noise_LAeq;noise_LA_min;noise_LA_max;noise_LA01;noise_LA95
40465;Laerm;30489;48.982;8.394;2023-08-30T00:00:24;40.13;38.52;41.46;;
40465;Laerm;30489;48.982;8.394;2023-08-30T00:02:35;40.15;37.88;41.53;;
40465;Laerm;30489;48.982;8.394;2023-08-30T00:04:46;40.15;38.21;41.68;;
40465;Laerm;30489;48.982;8.394;2023-08-30T00:06:57;40.14;38.05;42.59;;
40465;Laerm;30489;48.982;8.394;2023-08-30T00:09:07;40.19;38.37;41.82;;
40465;Laerm;30489;48.982;8.394;2023-08-30T00:11:18;40.14;38.32;41.61;;
40465;Laerm;30489;48.982;8.394;2023-08-30T00:13:29;40.13;38.37;41.75;;
40465;Laerm;30489;48.982;8.394;2023-08-30T00:15:39;40.11;38.21;41.53;;
40465;Laerm;30489;48.982;8.394;2023-08-30T00:17:50;40.11;38.37;41.53;;
40465;Laerm;30489;48.982;8.394;2023-08-30T00:20:02;40.09;38.37;41.68;;
40465;Laerm;30489;48.982;8.394;2023-08-30T00:22:13;40.12;38.67;41.61;;
40465;Laerm;30489;48.982;8.394;2023-08-30T00:24:23;40.11;38.52;41.61;;
40465;Laerm;30489;48.982;8.394;2023-08-30T00:26:33;40.11;38.05;41.82;;
40465;Laerm;30489;48.982;8.394;2023-08-30T00:28:43;40.11;38.52;41.46;;
40465;Laerm;30489;48.982;8.394;2023-08-30T00:30:54;40.10;38.21;41.53;;
40465;Laerm;30489;48.982;8.394;2023-08-30T00:33:05;40.09;38.05;41.53;;
40465;Laerm;30489;48.982;8.394;2023-08-30T00:35:15;40.07;38.05;41.82;;
40465;Laerm;30489;48.982;8.394;2023-08-30T00:37:26;40.04;38.21;41.68;;
40465;Laerm;30489;48.982;8.394;2023-08-30T00:39:39;40.05;38.21;41.68;;
40465;Laerm;30489;48.982;8.394;2023-08-30T00:41:49;40.06;38.21;41.46;;
40465;Laerm;30489;48.982;8.394;2023-08-30T00:44:00;40.07;38.52;41.46;;
40465;Laerm;30489;48.982;8.394;2023-08-30T00:46:10;40.03;38.05;41.53;;
40465;Laerm;30489;48.982;8.394;2023-08-30T00:48:21;40.04;38.37;43.29;;
40465;Laerm;30489;48.982;8.394;2023-08-30T00:50:31;40.04;38.21;41.61;;
40465;Laerm;30489;48.982;8.394;2023-08-30T00:52:42;40.04;37.88;41.33;;
40465;Laerm;30489;48.982;8.394;2023-08-30T00:54:52;40.05;37.70;41.53;;
40465;Laerm;30489;48.982;8.394;2023-08-30T00:57:03;40.01;38.05;41.82;;
40465;Laerm;30489;48.982;8.394;2023-08-30T00:59:14;40.00;38.18;42.71;;
40465;Laerm;30489;48.982;8.394;2023-08-30T01:01:24;39.99;38.37;41.53;;
40465;Laerm;30489;48.982;8.394;2023-08-30T01:03:35;40.02;38.05;41.46;;
40465;Laerm;30489;48.982;8.394;2023-08-30T01:05:45;40.02;38.21;41.61;;
40465;Laerm;30489;48.982;8.394;2023-08-30T01:07:55;40.02;38.05;41.61;;
40465;Laerm;30489;48.982;8.394;2023-08-30T01:10:06;40.02;38.05;41.46;;
40465;Laerm;30489;48.982;8.394;2023-08-30T01:12:17;40.01;37.88;41.68;;
40465;Laerm;30489;48.982;8.394;2023-08-30T01:15:17;40.04;38.05;45.33;;
40465;Laerm;30489;48.982;8.394;2023-08-30T01:17:00;40.05;38.21;44.27;;
40465;Laerm;30489;48.982;8.394;2023-08-30T01:19:17;40.06;38.37;41.61;;
40465;Laerm;30489;48.982;8.394;2023-08-30T01:21:39;40.08;37.88;41.53;;
40465;Laerm;30489;48.982;8.394;2023-08-30T01:23:58;40.08;38.21;41.53;;
40465;Laerm;30489;48.982;8.394;2023-08-30T01:26:12;40.10;38.37;41.75;;
40465;Laerm;30489;48.982;8.394;2023-08-30T01:28:24;40.11;38.21;41.75;;
40465;Laerm;30489;48.982;8.394;2023-08-30T01:30:37;40.09;38.37;41.55;;
40465;Laerm;30489;48.982;8.394;2023-08-30T01:32:49;40.09;38.52;41.46;;
40465;Laerm;30489;48.982;8.394;2023-08-30T01:35:00;40.11;38.21;41.53;;
40465;Laerm;30489;48.982;8.394;2023-08-30T01:37:11;40.11;38.05;41.53;;
40465;Laerm;30489;48.982;8.394;2023-08-30T01:39:23;40.10;38.37;41.61;;
40465;Laerm;30489;48.982;8.394;2023-08-30T01:41:34;40.08;38.21;41.53;;
40465;Laerm;30489;48.982;8.394;2023-08-30T01:43:45;40.08;38.37;41.53;;
40465;Laerm;30489;48.982;8.394;2023-08-30T01:45:57;40.05;38.52;41.75;;
40465;Laerm;30489;48.982;8.394;2023-08-30T01:48:11;40.08;38.37;41.38;;
40465;Laerm;30489;48.982;8.394;2023-08-30T01:50:22;40.06;38.21;41.68;;
40465;Laerm;30489;48.982;8.394;2023-08-30T01:52:32;40.07;37.88;41.68;;
40465;Laerm;30489;48.982;8.394;2023-08-30T01:54:43;40.11;38.52;41.53;;
40465;Laerm;30489;48.982;8.394;2023-08-30T01:56:54;40.08;37.88;41.61;;
40465;Laerm;30489;48.982;8.394;2023-08-30T01:59:05;40.06;38.21;41.38;;
40465;Laerm;30489;48.982;8.394;2023-08-30T02:01:15;40.07;38.52;41.53;;
40465;Laerm;30489;48.982;8.394;2023-08-30T02:03:25;40.08;38.37;41.55;;
40465;Laerm;30489;48.982;8.394;2023-08-30T02:05:36;40.06;37.88;41.89;;
40465;Laerm;30489;48.982;8.394;2023-08-30T02:10:17;40.09;38.05;41.61;;
40465;Laerm;30489;48.982;8.394;2023-08-30T02:12:34;40.11;38.21;41.61;;
40465;Laerm;30489;48.982;8.394;2023-08-30T02:14:47;40.12;38.52;41.53;;
40465;Laerm;30489;48.982;8.394;2023-08-30T02:16:58;40.12;38.05;42.59;;
40465;Laerm;30489;48.982;8.394;2023-08-30T02:19:08;40.11;38.21;42.41;;
40465;Laerm;30489;48.982;8.394;2023-08-30T02:21:19;40.09;38.37;41.53;;
40465;Laerm;30489;48.982;8.394;2023-08-30T02:23:29;40.07;37.70;41.53;;
40465;Laerm;30489;48.982;8.394;2023-08-30T02:25:39;40.06;38.37;41.82;;
40465;Laerm;30489;48.982;8.394;2023-08-30T02:27:50;40.08;38.05;41.53;;
40465;Laerm;30489;48.982;8.394;2023-08-30T02:30:00;40.11;38.37;41.61;;
40465;Laerm;30489;48.982;8.394;2023-08-30T02:32:10;40.10;38.37;41.68;;
40465;Laerm;30489;48.982;8.394;2023-08-30T02:34:21;40.13;38.37;41.46;;
40465;Laerm;30489;48.982;8.394;2023-08-30T02:36:31;40.10;38.52;41.53;;
40465;Laerm;30489;48.982;8.394;2023-08-30T02:38:41;40.11;38.47;41.68;;
40465;Laerm;30489;48.982;8.394;2023-08-30T02:40:52;40.10;38.21;41.53;;
40465;Laerm;30489;48.982;8.394;2023-08-30T02:43:02;40.13;38.52;41.61;;
40465;Laerm;30489;48.982;8.394;2023-08-30T02:45:12;40.11;38.21;41.68;;
40465;Laerm;30489;48.982;8.394;2023-08-30T02:47:22;40.11;38.21;41.61;;
40465;Laerm;30489;48.982;8.394;2023-08-30T02:49:33;40.11;38.37;41.75;;
40465;Laerm;30489;48.982;8.394;2023-08-30T02:51:43;40.11;38.21;41.68;;
40465;Laerm;30489;48.982;8.394;2023-08-30T02:53:53;40.09;38.21;43.14;;
40465;Laerm;30489;48.982;8.394;2023-08-30T02:56:03;40.10;38.05;41.53;;
40465;Laerm;30489;48.982;8.394;2023-08-30T02:58:14;40.12;38.05;41.61;;
40465;Laerm;30489;48.982;8.394;2023-08-30T03:00:24;40.08;38.37;41.61;;
40465;Laerm;30489;48.982;8.394;2023-08-30T03:02:34;40.07;38.21;41.53;;
40465;Laerm;30489;48.982;8.394;2023-08-30T03:04:45;40.08;38.37;41.82;;
40465;Laerm;30489;48.982;8.394;2023-08-30T03:06:55;40.11;38.37;41.61;;
40465;Laerm;30489;48.982;8.394;2023-08-30T03:09:05;40.10;38.37;41.53;;
40465;Laerm;30489;48.982;8.394;2023-08-30T03:11:16;40.16;38.21;41.75;;
40465;Laerm;30489;48.982;8.394;2023-08-30T03:13:26;40.15;37.88;41.68;;
40465;Laerm;30489;48.982;8.394;2023-08-30T03:15:36;40.18;37.88;45.17;;
40465;Laerm;30489;48.982;8.394;2023-08-30T03:17:47;40.10;38.21;41.75;;
40465;Laerm;30489;48.982;8.394;2023-08-30T03:19:57;40.08;38.21;41.61;;
40465;Laerm;30489;48.982;8.394;2023-08-30T03:22:07;40.12;38.37;41.89;;
40465;Laerm;30489;48.982;8.394;2023-08-30T03:24:18;40.14;38.37;41.61;;
40465;Laerm;30489;48.982;8.394;2023-08-30T03:26:28;40.13;38.37;43.49;;
40465;Laerm;30489;48.982;8.394;2023-08-30T03:28:39;40.09;38.21;42.09;;
40465;Laerm;30489;48.982;8.394;2023-08-30T03:30:49;40.10;38.21;42.53;;
40465;Laerm;30489;48.982;8.394;2023-08-30T03:32:59;40.13;38.52;42.59;;
40465;Laerm;30489;48.982;8.394;2023-08-30T03:35:10;40.13;38.52;41.68;;
40465;Laerm;30489;48.982;8.394;2023-08-30T03:37:20;40.09;38.05;41.75;;
40465;Laerm;30489;48.982;8.394;2023-08-30T03:39:30;40.08;37.70;41.61;;
40465;Laerm;30489;48.982;8.394;2023-08-30T03:41:41;40.05;38.05;42.53;;
40465;Laerm;30489;48.982;8.394;2023-08-30T03:43:51;40.07;38.32;41.46;;
40465;Laerm;30489;48.982;8.394;2023-08-30T03:46:01;40.07;38.21;41.68;;
40465;Laerm;30489;48.982;8.394;2023-08-30T03:48:13;40.05;38.21;41.75;;
40465;Laerm;30489;48.982;8.394;2023-08-30T03:50:23;40.06;38.05;41.53;;
40465;Laerm;30489;48.982;8.394;2023-08-30T03:52:33;40.06;38.21;41.53;;
40465;Laerm;30489;48.982;8.394;2023-08-30T03:54:43;40.07;38.37;41.61;;
40465;Laerm;30489;48.982;8.394;2023-08-30T03:56:54;40.07;37.70;41.61;;
40465;Laerm;30489;48.982;8.394;2023-08-30T03:59:04;40.05;38.37;41.46;;
40465;Laerm;30489;48.982;8.394;2023-08-30T04:01:14;40.12;38.21;45.77;;
40465;Laerm;30489;48.982;8.394;2023-08-30T04:03:24;40.10;38.21;41.53;;
40465;Laerm;30489;48.982;8.394;2023-08-30T04:05:35;40.03;38.21;42.16;;
40465;Laerm;30489;48.982;8.394;2023-08-30T04:07:45;40.05;38.05;41.53;;
40465;Laerm;30489;48.982;8.394;2023-08-30T04:09:55;40.05;38.05;41.96;;
40465;Laerm;30489;48.982;8.394;2023-08-30T04:12:06;40.04;38.05;41.53;;
40465;Laerm;30489;48.982;8.394;2023-08-30T04:14:16;40.03;38.52;41.82;;
40465;Laerm;30489;48.982;8.394;2023-08-30T04:16:27;40.04;38.37;41.46;;
40465;Laerm;30489;48.982;8.394;2023-08-30T04:18:37;40.02;38.37;42.09;;
40465;Laerm;30489;48.982;8.394;2023-08-30T04:20:47;40.01;38.21;41.89;;
40465;Laerm;30489;48.982;8.394;2023-08-30T04:22:58;40.03;38.37;44.69;;
40465;Laerm;30489;48.982;8.394;2023-08-30T04:25:11;40.03;38.21;41.53;;
40465;Laerm;30489;48.982;8.394;2023-08-30T04:27:21;40.02;38.21;41.46;;
40465;Laerm;30489;48.982;8.394;2023-08-30T04:29:32;40.02;38.05;41.82;;
40465;Laerm;30489;48.982;8.394;2023-08-30T04:31:43;40.04;38.37;41.82;;
40465;Laerm;30489;48.982;8.394;2023-08-30T04:33:53;40.03;38.21;42.71;;
40465;Laerm;30489;48.982;8.394;2023-08-30T04:36:05;40.04;38.21;41.68;;
40465;Laerm;30489;48.982;8.394;2023-08-30T04:38:15;40.07;38.21;41.75;;
40465;Laerm;30489;48.982;8.394;2023-08-30T04:40:25;40.08;37.88;41.75;;
40465;Laerm;30489;48.982;8.394;2023-08-30T04:42:36;39.99;38.37;41.53;;
40465;Laerm;30489;48.982;8.394;2023-08-30T04:44:46;40.01;37.88;42.65;;
40465;Laerm;30489;48.982;8.394;2023-08-30T04:46:57;40.00;37.88;41.61;;
40465;Laerm;30489;48.982;8.394;2023-08-30T04:49:07;39.99;38.21;41.30;;
40465;Laerm;30489;48.982;8.394;2023-08-30T04:51:17;40.02;38.05;41.82;;
40465;Laerm;30489;48.982;8.394;2023-08-30T04:53:27;39.96;38.21;43.39;;
40465;Laerm;30489;48.982;8.394;2023-08-30T04:55:38;39.97;38.05;43.54;;
40465;Laerm;30489;48.982;8.394;2023-08-30T04:57:48;39.96;38.05;41.68;;
40465;Laerm;30489;48.982;8.394;2023-08-30T04:59:58;39.95;38.21;41.61;;
40465;Laerm;30489;48.982;8.394;2023-08-30T05:02:09;39.95;38.37;41.68;;
40465;Laerm;30489;48.982;8.394;2023-08-30T05:04:20;39.93;38.32;41.38;;
40465;Laerm;30489;48.982;8.394;2023-08-30T05:06:30;39.90;37.87;41.75;;
40465;Laerm;30489;48.982;8.394;2023-08-30T05:08:41;39.91;38.21;41.30;;
40465;Laerm;30489;48.982;8.394;2023-08-30T05:10:53;39.96;38.21;44.31;;
40465;Laerm;30489;48.982;8.394;2023-08-30T05:13:04;39.99;38.37;42.41;;
40465;Laerm;30489;48.982;8.394;2023-08-30T05:15:14;40.01;37.88;45.63;;
40465;Laerm;30489;48.982;8.394;2023-08-30T05:17:26;40.03;38.32;41.53;;
40465;Laerm;30489;48.982;8.394;2023-08-30T05:19:38;40.03;38.52;41.53;;
40465;Laerm;30489;48.982;8.394;2023-08-30T05:21:48;40.03;38.21;41.82;;
40465;Laerm;30489;48.982;8.394;2023-08-30T05:24:01;40.04;38.37;41.53;;
40465;Laerm;30489;48.982;8.394;2023-08-30T05:26:11;40.06;38.37;43.44;;
40465;Laerm;30489;48.982;8.394;2023-08-30T05:28:26;40.04;38.21;42.47;;
40465;Laerm;30489;48.982;8.394;2023-08-30T05:30:38;40.07;38.37;44.15;;
40465;Laerm;30489;48.982;8.394;2023-08-30T05:32:49;40.08;38.37;41.53;;
40465;Laerm;30489;48.982;8.394;2023-08-30T05:34:59;40.06;38.21;44.69;;
40465;Laerm;30489;48.982;8.394;2023-08-30T05:37:09;40.08;38.37;41.53;;
40465;Laerm;30489;48.982;8.394;2023-08-30T05:39:19;40.09;38.37;41.96;;
40465;Laerm;30489;48.982;8.394;2023-08-30T05:41:30;40.07;38.37;41.53;;
40465;Laerm;30489;48.982;8.394;2023-08-30T05:43:40;40.07;38.37;42.09;;
40465;Laerm;30489;48.982;8.394;2023-08-30T05:45:53;40.09;38.21;41.61;;
40465;Laerm;30489;48.982;8.394;2023-08-30T05:48:06;40.06;38.21;41.53;;
40465;Laerm;30489;48.982;8.394;2023-08-30T05:50:17;40.07;38.52;42.16;;
40465;Laerm;30489;48.982;8.394;2023-08-30T05:52:27;40.08;38.37;43.63;;
40465;Laerm;30489;48.982;8.394;2023-08-30T05:54:37;40.10;38.37;41.68;;
40465;Laerm;30489;48.982;8.394;2023-08-30T05:57:06;40.07;38.37;41.75;;
40465;Laerm;30489;48.982;8.394;2023-08-30T05:59:16;40.11;38.05;45.48;;
40465;Laerm;30489;48.982;8.394;2023-08-30T06:01:27;40.09;38.21;45.20;;
40465;Laerm;30489;48.982;8.394;2023-08-30T06:03:37;40.12;38.52;41.61;;
40465;Laerm;30489;48.982;8.394;2023-08-30T06:05:47;40.12;38.37;43.04;;
40465;Laerm;30489;48.982;8.394;2023-08-30T06:07:58;40.10;38.21;41.53;;
40465;Laerm;30489;48.982;8.394;2023-08-30T06:10:09;40.12;38.52;42.93;;
40465;Laerm;30489;48.982;8.394;2023-08-30T06:12:19;40.10;38.37;41.68;;
40465;Laerm;30489;48.982;8.394;2023-08-30T06:14:29;40.08;38.05;41.61;;
40465;Laerm;30489;48.982;8.394;2023-08-30T06:16:40;40.11;38.52;41.75;;
40465;Laerm;30489;48.982;8.394;2023-08-30T06:18:54;40.09;38.05;44.19;;
40465;Laerm;30489;48.982;8.394;2023-08-30T06:21:04;40.12;38.37;45.48;;
40465;Laerm;30489;48.982;8.394;2023-08-30T06:23:14;40.10;38.21;41.75;;
40465;Laerm;30489;48.982;8.394;2023-08-30T06:25:25;40.15;38.21;41.68;;
40465;Laerm;30489;48.982;8.394;2023-08-30T06:27:42;40.15;38.21;41.82;;
40465;Laerm;30489;48.982;8.394;2023-08-30T06:29:53;40.14;38.52;46.50;;
40465;Laerm;30489;48.982;8.394;2023-08-30T06:32:04;40.14;38.52;41.96;;
40465;Laerm;30489;48.982;8.394;2023-08-30T06:34:14;40.14;38.21;43.19;;
40465;Laerm;30489;48.982;8.394;2023-08-30T06:36:25;40.16;38.21;42.90;;
40465;Laerm;30489;48.982;8.394;2023-08-30T06:38:35;40.19;38.37;45.33;;
40465;Laerm;30489;48.982;8.394;2023-08-30T06:40:45;40.17;38.37;41.68;;
40465;Laerm;30489;48.982;8.394;2023-08-30T06:42:55;40.16;38.21;41.75;;
40465;Laerm;30489;48.982;8.394;2023-08-30T06:45:07;40.16;38.05;42.16;;
40465;Laerm;30489;48.982;8.394;2023-08-30T06:47:17;40.19;38.67;41.61;;
40465;Laerm;30489;48.982;8.394;2023-08-30T06:49:28;40.21;38.52;42.53;;
40465;Laerm;30489;48.982;8.394;2023-08-30T06:51:38;40.20;38.52;41.61;;
40465;Laerm;30489;48.982;8.394;2023-08-30T06:53:48;40.20;38.05;42.09;;
40465;Laerm;30489;48.982;8.394;2023-08-30T06:55:59;40.18;38.52;41.48;;
40465;Laerm;30489;48.982;8.394;2023-08-30T06:58:09;40.21;38.52;41.68;;
40465;Laerm;30489;48.982;8.394;2023-08-30T07:00:20;40.23;38.52;42.35;;
40465;Laerm;30489;48.982;8.394;2023-08-30T07:02:30;40.22;38.37;41.82;;
40465;Laerm;30489;48.982;8.394;2023-08-30T07:04:41;40.22;38.60;41.61;;
40465;Laerm;30489;48.982;8.394;2023-08-30T07:06:52;40.23;38.21;41.68;;
40465;Laerm;30489;48.982;8.394;2023-08-30T07:09:02;40.22;38.37;41.68;;
40465;Laerm;30489;48.982;8.394;2023-08-30T07:11:14;40.22;38.67;41.75;;
40465;Laerm;30489;48.982;8.394;2023-08-30T07:13:24;40.25;38.05;41.68;;
40465;Laerm;30489;48.982;8.394;2023-08-30T07:15:35;40.27;38.67;41.61;;
40465;Laerm;30489;48.982;8.394;2023-08-30T07:17:45;40.30;38.37;41.75;;
40465;Laerm;30489;48.982;8.394;2023-08-30T07:19:55;40.29;38.52;41.75;;
40465;Laerm;30489;48.982;8.394;2023-08-30T07:22:05;40.30;38.37;41.89;;
40465;Laerm;30489;48.982;8.394;2023-08-30T07:24:15;40.30;38.52;41.61;;
40465;Laerm;30489;48.982;8.394;2023-08-30T07:26:26;40.31;38.81;41.89;;
40465;Laerm;30489;48.982;8.394;2023-08-30T07:28:36;40.32;38.52;41.89;;
40465;Laerm;30489;48.982;8.394;2023-08-30T07:30:46;40.31;37.70;43.09;;
40465;Laerm;30489;48.982;8.394;2023-08-30T07:32:56;40.32;38.67;41.61;;
40465;Laerm;30489;48.982;8.394;2023-08-30T07:35:07;40.30;38.52;41.61;;
40465;Laerm;30489;48.982;8.394;2023-08-30T07:37:18;40.32;38.81;41.82;;
40465;Laerm;30489;48.982;8.394;2023-08-30T07:39:29;40.31;38.47;41.89;;
40465;Laerm;30489;48.982;8.394;2023-08-30T07:41:39;40.30;38.67;41.89;;
40465;Laerm;30489;48.982;8.394;2023-08-30T07:43:49;40.31;38.37;41.68;;
40465;Laerm;30489;48.982;8.394;2023-08-30T07:45:59;40.37;38.67;46.05;;
40465;Laerm;30489;48.982;8.394;2023-08-30T07:48:10;40.35;38.81;41.75;;
40465;Laerm;30489;48.982;8.394;2023-08-30T07:50:20;40.32;38.81;43.68;;
40465;Laerm;30489;48.982;8.394;2023-08-30T07:52:30;40.32;38.67;41.68;;
40465;Laerm;30489;48.982;8.394;2023-08-30T07:54:40;40.34;38.37;43.34;;
40465;Laerm;30489;48.982;8.394;2023-08-30T07:56:51;40.31;38.52;41.82;;
40465;Laerm;30489;48.982;8.394;2023-08-30T07:59:01;40.30;38.37;41.61;;
40465;Laerm;30489;48.982;8.394;2023-08-30T08:01:12;40.33;38.67;41.68;;
40465;Laerm;30489;48.982;8.394;2023-08-30T08:03:22;40.33;38.52;45.57;;
40465;Laerm;30489;48.982;8.394;2023-08-30T08:05:33;40.33;38.37;41.68;;
40465;Laerm;30489;48.982;8.394;2023-08-30T08:07:43;40.29;38.81;41.61;;
40465;Laerm;30489;48.982;8.394;2023-08-30T08:09:53;40.32;38.52;41.75;;
40465;Laerm;30489;48.982;8.394;2023-08-30T08:12:05;40.34;38.67;41.82;;
40465;Laerm;30489;48.982;8.394;2023-08-30T08:14:15;40.34;38.67;41.75;;
40465;Laerm;30489;48.982;8.394;2023-08-30T08:16:25;40.35;38.52;41.89;;
40465;Laerm;30489;48.982;8.394;2023-08-30T08:18:36;40.34;38.67;41.75;;
40465;Laerm;30489;48.982;8.394;2023-08-30T08:20:46;40.33;38.05;41.68;;
40465;Laerm;30489;48.982;8.394;2023-08-30T08:22:56;40.36;38.67;41.82;;
40465;Laerm;30489;48.982;8.394;2023-08-30T08:25:06;40.36;38.52;41.75;;
40465;Laerm;30489;48.982;8.394;2023-08-30T08:27:19;40.36;38.52;43.34;;
40465;Laerm;30489;48.982;8.394;2023-08-30T08:29:30;40.36;38.67;41.53;;
40465;Laerm;30489;48.982;8.394;2023-08-30T08:31:40;40.37;38.37;41.89;;
40465;Laerm;30489;48.982;8.394;2023-08-30T08:33:51;40.32;38.67;41.89;;
40465;Laerm;30489;48.982;8.394;2023-08-30T08:36:02;40.38;38.74;41.68;;
40465;Laerm;30489;48.982;8.394;2023-08-30T08:38:12;40.41;38.67;41.89;;
40465;Laerm;30489;48.982;8.394;2023-08-30T08:40:22;40.41;38.81;41.96;;
40465;Laerm;30489;48.982;8.394;2023-08-30T08:42:32;40.45;38.95;41.82;;
40465;Laerm;30489;48.982;8.394;2023-08-30T08:44:43;40.50;38.52;42.03;;
40465;Laerm;30489;48.982;8.394;2023-08-30T08:46:53;40.49;39.08;41.89;;
40465;Laerm;30489;48.982;8.394;2023-08-30T08:49:06;40.48;38.95;42.47;;
40465;Laerm;30489;48.982;8.394;2023-08-30T08:51:17;40.53;38.81;45.91;;
40465;Laerm;30489;48.982;8.394;2023-08-30T08:53:28;40.52;38.95;42.35;;
40465;Laerm;30489;48.982;8.394;2023-08-30T08:55:38;40.50;38.81;44.62;;
40465;Laerm;30489;48.982;8.394;2023-08-30T08:57:50;40.50;38.81;41.89;;
40465;Laerm;30489;48.982;8.394;2023-08-30T09:00:01;40.53;38.81;41.82;;
40465;Laerm;30489;48.982;8.394;2023-08-30T09:02:12;40.55;39.08;41.82;;
40465;Laerm;30489;48.982;8.394;2023-08-30T09:04:23;40.64;38.67;41.89;;
40465;Laerm;30489;48.982;8.394;2023-08-30T09:06:34;40.66;38.95;42.03;;
40465;Laerm;30489;48.982;8.394;2023-08-30T09:08:44;40.67;39.08;42.71;;
40465;Laerm;30489;48.982;8.394;2023-08-30T09:10:54;40.69;39.21;41.96;;
40465;Laerm;30489;48.982;8.394;2023-08-30T09:13:05;40.67;38.74;41.89;;
40465;Laerm;30489;48.982;8.394;2023-08-30T09:15:15;40.65;39.21;42.30;;
40465;Laerm;30489;48.982;8.394;2023-08-30T09:17:38;40.64;38.81;42.41;;
40465;Laerm;30489;48.982;8.394;2023-08-30T09:19:49;40.68;38.95;42.09;;
40465;Laerm;30489;48.982;8.394;2023-08-30T09:22:00;40.79;39.34;42.22;;
40465;Laerm;30489;48.982;8.394;2023-08-30T09:24:10;40.77;39.34;41.96;;
40465;Laerm;30489;48.982;8.394;2023-08-30T09:26:20;40.76;38.95;41.96;;
40465;Laerm;30489;48.982;8.394;2023-08-30T09:28:31;40.81;39.21;42.03;;
40465;Laerm;30489;48.982;8.394;2023-08-30T09:30:48;40.82;39.21;42.64;;
40465;Laerm;30489;48.982;8.394;2023-08-30T09:33:02;40.87;38.95;42.35;;
40465;Laerm;30489;48.982;8.394;2023-08-30T09:35:13;40.84;39.34;42.09;;
40465;Laerm;30489;48.982;8.394;2023-08-30T09:37:23;40.87;39.34;42.59;;
40465;Laerm;30489;48.982;8.394;2023-08-30T09:39:33;41.01;39.58;42.22;;
40465;Laerm;30489;48.982;8.394;2023-08-30T09:41:45;41.00;39.58;42.29;;
40465;Laerm;30489;48.982;8.394;2023-08-30T09:43:56;41.02;39.46;42.16;;
40465;Laerm;30489;48.982;8.394;2023-08-30T09:46:06;41.02;39.46;42.29;;
40465;Laerm;30489;48.982;8.394;2023-08-30T09:48:20;41.01;39.58;42.41;;
40465;Laerm;30489;48.982;8.394;2023-08-30T09:50:35;41.00;39.34;42.16;;
40465;Laerm;30489;48.982;8.394;2023-08-30T09:52:49;41.01;39.58;42.35;;
40465;Laerm;30489;48.982;8.394;2023-08-30T09:54:59;41.00;39.58;42.29;;
40465;Laerm;30489;48.982;8.394;2023-08-30T09:57:10;41.02;39.11;42.22;;
40465;Laerm;30489;48.982;8.394;2023-08-30T09:59:21;41.01;39.34;42.35;;
40465;Laerm;30489;48.982;8.394;2023-08-30T10:01:31;40.99;39.58;42.35;;
40465;Laerm;30489;48.982;8.394;2023-08-30T10:03:42;40.99;39.46;42.22;;
40465;Laerm;30489;48.982;8.394;2023-08-30T10:05:52;40.98;39.21;42.35;;
40465;Laerm;30489;48.982;8.394;2023-08-30T10:08:04;41.02;39.58;42.22;;
40465;Laerm;30489;48.982;8.394;2023-08-30T10:10:16;41.04;39.46;42.53;;
40465;Laerm;30489;48.982;8.394;2023-08-30T10:12:27;41.13;39.70;42.22;;
40465;Laerm;30489;48.982;8.394;2023-08-30T10:14:37;41.08;39.81;42.22;;
40465;Laerm;30489;48.982;8.394;2023-08-30T10:16:48;41.03;39.68;42.29;;
40465;Laerm;30489;48.982;8.394;2023-08-30T10:19:01;41.02;39.70;42.41;;
40465;Laerm;30489;48.982;8.394;2023-08-30T10:21:12;41.03;39.58;42.47;;
40465;Laerm;30489;48.982;8.394;2023-08-30T10:23:23;41.13;39.92;42.29;;
40465;Laerm;30489;48.982;8.394;2023-08-30T10:25:33;41.12;39.70;42.30;;
40465;Laerm;30489;48.982;8.394;2023-08-30T10:27:45;41.07;39.70;42.41;;
40465;Laerm;30489;48.982;8.394;2023-08-30T10:29:56;41.00;39.58;42.22;;
40465;Laerm;30489;48.982;8.394;2023-08-30T10:32:06;41.00;39.46;45.11;;
40465;Laerm;30489;48.982;8.394;2023-08-30T10:34:17;41.04;39.58;42.29;;
40465;Laerm;30489;48.982;8.394;2023-08-30T10:36:30;41.09;39.58;42.29;;
40465;Laerm;30489;48.982;8.394;2023-08-30T10:38:40;41.09;39.46;42.47;;
40465;Laerm;30489;48.982;8.394;2023-08-30T10:41:08;41.15;39.81;42.29;;
40465;Laerm;30489;48.982;8.394;2023-08-30T10:43:27;41.12;39.58;42.35;;
40465;Laerm;30489;48.982;8.394;2023-08-30T10:45:38;41.22;39.58;43.34;;
40465;Laerm;30489;48.982;8.394;2023-08-30T10:47:48;41.20;39.81;42.47;;
40465;Laerm;30489;48.982;8.394;2023-08-30T10:50:05;41.18;39.70;42.47;;
40465;Laerm;30489;48.982;8.394;2023-08-30T10:52:16;41.16;39.89;42.36;;
40465;Laerm;30489;48.982;8.394;2023-08-30T10:54:36;41.14;39.58;42.35;;
40465;Laerm;30489;48.982;8.394;2023-08-30T10:58:57;41.19;39.70;42.35;;
40465;Laerm;30489;48.982;8.394;2023-08-30T11:01:08;41.19;39.92;42.41;;
40465;Laerm;30489;48.982;8.394;2023-08-30T11:03:19;41.15;39.81;42.16;;
40465;Laerm;30489;48.982;8.394;2023-08-30T11:05:30;41.17;39.70;42.47;;
40465;Laerm;30489;48.982;8.394;2023-08-30T11:07:40;41.23;39.81;42.53;;
40465;Laerm;30489;48.982;8.394;2023-08-30T11:09:53;41.26;40.13;42.41;;
40465;Laerm;30489;48.982;8.394;2023-08-30T11:12:04;41.18;39.70;42.47;;
40465;Laerm;30489;48.982;8.394;2023-08-30T11:14:15;41.13;39.92;42.35;;
40465;Laerm;30489;48.982;8.394;2023-08-30T11:16:25;41.20;39.92;42.47;;
40465;Laerm;30489;48.982;8.394;2023-08-30T11:18:38;41.22;39.58;42.35;;
40465;Laerm;30489;48.982;8.394;2023-08-30T11:20:52;41.25;39.92;42.47;;
40465;Laerm;30489;48.982;8.394;2023-08-30T11:23:03;41.28;40.03;42.35;;
40465;Laerm;30489;48.982;8.394;2023-08-30T11:25:14;41.25;39.92;42.53;;
40465;Laerm;30489;48.982;8.394;2023-08-30T11:27:25;41.24;39.92;42.35;;
40465;Laerm;30489;48.982;8.394;2023-08-30T11:29:35;41.25;39.70;42.76;;
40465;Laerm;30489;48.982;8.394;2023-08-30T11:31:45;41.33;40.03;42.65;;
40465;Laerm;30489;48.982;8.394;2023-08-30T11:33:57;41.35;40.03;42.53;;
40465;Laerm;30489;48.982;8.394;2023-08-30T11:36:08;41.35;39.46;42.47;;
40465;Laerm;30489;48.982;8.394;2023-08-30T11:38:19;41.31;39.92;42.47;;
40465;Laerm;30489;48.982;8.394;2023-08-30T11:40:29;41.38;39.92;42.65;;
40465;Laerm;30489;48.982;8.394;2023-08-30T11:42:42;41.43;39.92;42.59;;
40465;Laerm;30489;48.982;8.394;2023-08-30T11:44:53;41.38;39.70;42.71;;
40465;Laerm;30489;48.982;8.394;2023-08-30T11:47:03;41.34;39.70;42.47;;
40465;Laerm;30489;48.982;8.394;2023-08-30T11:49:14;41.51;40.23;42.71;;
40465;Laerm;30489;48.982;8.394;2023-08-30T11:51:24;41.54;40.33;42.65;;
40465;Laerm;30489;48.982;8.394;2023-08-30T11:53:35;41.55;40.23;42.65;;
40465;Laerm;30489;48.982;8.394;2023-08-30T11:55:45;41.53;40.33;42.65;;
40465;Laerm;30489;48.982;8.394;2023-08-30T11:57:56;41.48;40.23;42.59;;
40465;Laerm;30489;48.982;8.394;2023-08-30T12:00:07;41.46;40.08;42.53;;
40465;Laerm;30489;48.982;8.394;2023-08-30T12:02:17;41.53;40.03;42.65;;
40465;Laerm;30489;48.982;8.394;2023-08-30T12:04:28;41.56;40.33;42.76;;
40465;Laerm;30489;48.982;8.394;2023-08-30T12:06:38;41.60;40.13;42.71;;
40465;Laerm;30489;48.982;8.394;2023-08-30T12:08:48;41.53;40.13;42.93;;
40465;Laerm;30489;48.982;8.394;2023-08-30T12:10:58;41.54;40.13;42.65;;
40465;Laerm;30489;48.982;8.394;2023-08-30T12:13:19;41.51;39.81;42.65;;
40465;Laerm;30489;48.982;8.394;2023-08-30T12:15:29;41.55;40.13;42.76;;
40465;Laerm;30489;48.982;8.394;2023-08-30T12:17:44;41.53;40.23;42.65;;